sensor_id;sensor_type;location;lat;lon;timestamp;P1;durP1;ratioP1;P2;durP2;ratioP2
80278;SDS011;70683;52.492;13.416;2023-12-28T00:01:43;15.03;;;6.28;;
80278;SDS011;70683;52.492;13.416;2023-12-28T00:04:11;9.95;;;5.20;;
80278;SDS011;70683;52.492;13.416;2023-12-28T00:06:37;9.98;;;4.80;;
80278;SDS011;70683;52.492;13.416;2023-12-28T00:09:04;12.07;;;5.78;;
80278;SDS011;70683;52.492;13.416;2023-12-28T00:11:31;9.65;;;4.95;;
80278;SDS011;70683;52.492;13.416;2023-12-28T00:13:58;9.50;;;4.58;;
80278;SDS011;70683;52.492;13.416;2023-12-28T00:16:25;11.30;;;4.97;;
80278;SDS011;70683;52.492;13.416;2023-12-28T00:18:51;12.13;;;4.58;;
80278;SDS011;70683;52.492;13.416;2023-12-28T00:21:18;12.88;;;5.17;;
80278;SDS011;70683;52.492;13.416;2023-12-28T00:23:45;9.48;;;4.20;;
80278;SDS011;70683;52.492;13.416;2023-12-28T00:26:12;11.10;;;4.55;;
80278;SDS011;70683;52.492;13.416;2023-12-28T00:28:40;8.88;;;4.28;;
80278;SDS011;70683;52.492;13.416;2023-12-28T00:31:06;9.08;;;4.28;;
80278;SDS011;70683;52.492;13.416;2023-12-28T00:33:35;12.13;;;3.90;;
80278;SDS011;70683;52.492;13.416;2023-12-28T00:36:01;10.50;;;4.62;;
80278;SDS011;70683;52.492;13.416;2023-12-28T00:38:28;7.85;;;4.03;;
80278;SDS011;70683;52.492;13.416;2023-12-28T00:40:55;13.00;;;4.47;;
80278;SDS011;70683;52.492;13.416;2023-12-28T00:43:21;10.20;;;4.17;;
80278;SDS011;70683;52.492;13.416;2023-12-28T00:45:48;7.72;;;3.80;;
80278;SDS011;70683;52.492;13.416;2023-12-28T00:48:14;10.18;;;3.98;;
80278;SDS011;70683;52.492;13.416;2023-12-28T00:50:41;9.05;;;4.50;;
80278;SDS011;70683;52.492;13.416;2023-12-28T00:53:08;12.30;;;4.42;;
80278;SDS011;70683;52.492;13.416;2023-12-28T00:55:36;9.80;;;4.17;;
80278;SDS011;70683;52.492;13.416;2023-12-28T00:58:03;7.78;;;4.03;;
80278;SDS011;70683;52.492;13.416;2023-12-28T01:00:29;8.93;;;3.90;;
80278;SDS011;70683;52.492;13.416;2023-12-28T01:02:56;9.48;;;3.55;;
80278;SDS011;70683;52.492;13.416;2023-12-28T01:05:22;6.20;;;3.22;;
80278;SDS011;70683;52.492;13.416;2023-12-28T01:07:51;8.08;;;3.22;;
80278;SDS011;70683;52.492;13.416;2023-12-28T01:10:18;7.17;;;3.77;;
80278;SDS011;70683;52.492;13.416;2023-12-28T01:12:45;9.50;;;3.95;;
80278;SDS011;70683;52.492;13.416;2023-12-28T01:15:11;5.62;;;3.33;;
80278;SDS011;70683;52.492;13.416;2023-12-28T01:17:38;8.53;;;3.17;;
80278;SDS011;70683;52.492;13.416;2023-12-28T01:20:05;5.97;;;3.10;;
80278;SDS011;70683;52.492;13.416;2023-12-28T01:22:32;9.98;;;2.87;;
80278;SDS011;70683;52.492;13.416;2023-12-28T01:24:59;8.78;;;3.77;;
80278;SDS011;70683;52.492;13.416;2023-12-28T01:27:25;8.75;;;3.45;;
80278;SDS011;70683;52.492;13.416;2023-12-28T01:29:52;7.05;;;3.58;;
80278;SDS011;70683;52.492;13.416;2023-12-28T01:32:19;8.93;;;3.20;;
80278;SDS011;70683;52.492;13.416;2023-12-28T01:34:45;8.90;;;3.42;;
80278;SDS011;70683;52.492;13.416;2023-12-28T01:37:12;6.10;;;3.20;;
80278;SDS011;70683;52.492;13.416;2023-12-28T01:39:39;6.85;;;3.20;;
80278;SDS011;70683;52.492;13.416;2023-12-28T01:42:05;7.87;;;3.35;;
80278;SDS011;70683;52.492;13.416;2023-12-28T01:44:32;7.40;;;3.05;;
80278;SDS011;70683;52.492;13.416;2023-12-28T01:46:58;7.90;;;2.77;;
80278;SDS011;70683;52.492;13.416;2023-12-28T01:49:26;8.70;;;3.20;;
80278;SDS011;70683;52.492;13.416;2023-12-28T01:51:52;8.18;;;2.85;;
80278;SDS011;70683;52.492;13.416;2023-12-28T01:54:21;9.33;;;3.52;;
80278;SDS011;70683;52.492;13.416;2023-12-28T01:56:48;8.45;;;3.65;;
80278;SDS011;70683;52.492;13.416;2023-12-28T01:59:15;5.53;;;2.47;;
80278;SDS011;70683;52.492;13.416;2023-12-28T02:01:44;6.22;;;2.70;;
80278;SDS011;70683;52.492;13.416;2023-12-28T02:04:11;7.62;;;2.45;;
80278;SDS011;70683;52.492;13.416;2023-12-28T02:06:39;6.20;;;2.52;;
80278;SDS011;70683;52.492;13.416;2023-12-28T02:09:06;5.37;;;2.83;;
80278;SDS011;70683;52.492;13.416;2023-12-28T02:11:32;6.90;;;2.52;;
80278;SDS011;70683;52.492;13.416;2023-12-28T02:13:59;5.45;;;2.40;;
80278;SDS011;70683;52.492;13.416;2023-12-28T02:16:30;6.42;;;2.52;;
80278;SDS011;70683;52.492;13.416;2023-12-28T02:19:00;5.97;;;2.65;;
80278;SDS011;70683;52.492;13.416;2023-12-28T02:21:30;8.08;;;2.72;;
80278;SDS011;70683;52.492;13.416;2023-12-28T02:23:58;3.98;;;2.45;;
80278;SDS011;70683;52.492;13.416;2023-12-28T02:26:25;7.12;;;2.40;;
80278;SDS011;70683;52.492;13.416;2023-12-28T02:28:52;5.62;;;2.27;;
80278;SDS011;70683;52.492;13.416;2023-12-28T02:31:28;5.83;;;2.42;;
80278;SDS011;70683;52.492;13.416;2023-12-28T02:34:04;5.67;;;2.00;;
80278;SDS011;70683;52.492;13.416;2023-12-28T02:36:34;2.92;;;2.00;;
80278;SDS011;70683;52.492;13.416;2023-12-28T02:39:04;5.25;;;2.20;;
80278;SDS011;70683;52.492;13.416;2023-12-28T02:41:32;2.92;;;1.85;;
80278;SDS011;70683;52.492;13.416;2023-12-28T02:44:00;3.90;;;1.80;;
80278;SDS011;70683;52.492;13.416;2023-12-28T02:46:27;4.95;;;1.95;;
80278;SDS011;70683;52.492;13.416;2023-12-28T02:48:54;6.08;;;2.05;;
80278;SDS011;70683;52.492;13.416;2023-12-28T02:51:22;5.12;;;2.17;;
80278;SDS011;70683;52.492;13.416;2023-12-28T02:53:49;3.60;;;1.92;;
80278;SDS011;70683;52.492;13.416;2023-12-28T02:56:17;3.12;;;1.72;;
80278;SDS011;70683;52.492;13.416;2023-12-28T02:58:43;3.60;;;1.55;;
80278;SDS011;70683;52.492;13.416;2023-12-28T03:01:10;5.20;;;1.70;;
80278;SDS011;70683;52.492;13.416;2023-12-28T03:03:37;5.25;;;1.95;;
80278;SDS011;70683;52.492;13.416;2023-12-28T03:06:03;4.87;;;1.98;;
80278;SDS011;70683;52.492;13.416;2023-12-28T03:08:41;5.62;;;1.70;;
80278;SDS011;70683;52.492;13.416;2023-12-28T03:11:08;4.00;;;1.70;;
80278;SDS011;70683;52.492;13.416;2023-12-28T03:13:34;5.10;;;1.50;;
80278;SDS011;70683;52.492;13.416;2023-12-28T03:16:01;4.05;;;2.08;;
80278;SDS011;70683;52.492;13.416;2023-12-28T03:18:28;2.92;;;1.60;;
80278;SDS011;70683;52.492;13.416;2023-12-28T03:20:54;3.42;;;1.77;;
80278;SDS011;70683;52.492;13.416;2023-12-28T03:23:21;5.17;;;1.72;;
80278;SDS011;70683;52.492;13.416;2023-12-28T03:25:47;3.83;;;1.98;;
80278;SDS011;70683;52.492;13.416;2023-12-28T03:28:14;3.17;;;1.75;;
80278;SDS011;70683;52.492;13.416;2023-12-28T03:30:41;4.90;;;1.65;;
80278;SDS011;70683;52.492;13.416;2023-12-28T03:33:07;4.45;;;1.72;;
80278;SDS011;70683;52.492;13.416;2023-12-28T03:35:34;5.33;;;1.62;;
80278;SDS011;70683;52.492;13.416;2023-12-28T03:38:00;6.65;;;1.27;;
80278;SDS011;70683;52.492;13.416;2023-12-28T03:40:27;4.40;;;1.40;;
80278;SDS011;70683;52.492;13.416;2023-12-28T03:42:53;3.70;;;1.60;;
80278;SDS011;70683;52.492;13.416;2023-12-28T03:45:20;4.05;;;1.98;;
80278;SDS011;70683;52.492;13.416;2023-12-28T03:47:47;5.03;;;1.52;;
80278;SDS011;70683;52.492;13.416;2023-12-28T03:50:13;6.12;;;1.77;;
80278;SDS011;70683;52.492;13.416;2023-12-28T03:52:40;3.25;;;1.40;;
80278;SDS011;70683;52.492;13.416;2023-12-28T03:55:07;4.15;;;1.60;;
80278;SDS011;70683;52.492;13.416;2023-12-28T03:57:33;3.70;;;1.47;;
80278;SDS011;70683;52.492;13.416;2023-12-28T04:00:00;4.03;;;1.80;;
80278;SDS011;70683;52.492;13.416;2023-12-28T04:02:26;4.75;;;1.77;;
80278;SDS011;70683;52.492;13.416;2023-12-28T04:04:55;4.10;;;1.72;;
80278;SDS011;70683;52.492;13.416;2023-12-28T04:07:24;3.75;;;1.72;;
80278;SDS011;70683;52.492;13.416;2023-12-28T04:09:50;4.55;;;1.70;;
80278;SDS011;70683;52.492;13.416;2023-12-28T04:12:17;5.28;;;1.50;;
80278;SDS011;70683;52.492;13.416;2023-12-28T04:14:43;3.60;;;1.72;;
80278;SDS011;70683;52.492;13.416;2023-12-28T04:17:10;7.00;;;1.52;;
80278;SDS011;70683;52.492;13.416;2023-12-28T04:19:37;5.05;;;1.98;;
80278;SDS011;70683;52.492;13.416;2023-12-28T04:22:03;6.05;;;1.70;;
80278;SDS011;70683;52.492;13.416;2023-12-28T04:24:30;4.30;;;2.15;;
80278;SDS011;70683;52.492;13.416;2023-12-28T04:26:57;5.90;;;1.57;;
80278;SDS011;70683;52.492;13.416;2023-12-28T04:29:23;4.90;;;2.05;;
80278;SDS011;70683;52.492;13.416;2023-12-28T04:31:50;3.35;;;1.70;;
80278;SDS011;70683;52.492;13.416;2023-12-28T04:34:17;2.35;;;1.40;;
80278;SDS011;70683;52.492;13.416;2023-12-28T04:36:44;2.55;;;1.60;;
80278;SDS011;70683;52.492;13.416;2023-12-28T04:39:12;3.75;;;1.72;;
80278;SDS011;70683;52.492;13.416;2023-12-28T04:41:39;4.58;;;1.52;;
80278;SDS011;70683;52.492;13.416;2023-12-28T04:44:05;2.80;;;1.27;;
80278;SDS011;70683;52.492;13.416;2023-12-28T04:46:32;3.95;;;1.77;;
80278;SDS011;70683;52.492;13.416;2023-12-28T04:49:00;3.67;;;1.67;;
80278;SDS011;70683;52.492;13.416;2023-12-28T04:51:27;2.47;;;1.20;;
80278;SDS011;70683;52.492;13.416;2023-12-28T04:53:54;3.52;;;1.55;;
80278;SDS011;70683;52.492;13.416;2023-12-28T04:56:20;4.25;;;1.67;;
80278;SDS011;70683;52.492;13.416;2023-12-28T04:58:48;3.10;;;1.50;;
80278;SDS011;70683;52.492;13.416;2023-12-28T05:01:15;3.00;;;1.67;;
80278;SDS011;70683;52.492;13.416;2023-12-28T05:03:44;5.62;;;1.55;;
80278;SDS011;70683;52.492;13.416;2023-12-28T05:06:10;3.17;;;1.47;;
80278;SDS011;70683;52.492;13.416;2023-12-28T05:08:37;2.22;;;1.50;;
80278;SDS011;70683;52.492;13.416;2023-12-28T05:11:05;2.67;;;1.32;;
80278;SDS011;70683;52.492;13.416;2023-12-28T05:13:31;2.72;;;1.55;;
80278;SDS011;70683;52.492;13.416;2023-12-28T05:16:00;3.00;;;1.52;;
80278;SDS011;70683;52.492;13.416;2023-12-28T05:18:27;5.08;;;1.72;;
80278;SDS011;70683;52.492;13.416;2023-12-28T05:20:54;2.72;;;1.37;;
80278;SDS011;70683;52.492;13.416;2023-12-28T05:23:20;4.25;;;1.20;;
80278;SDS011;70683;52.492;13.416;2023-12-28T05:25:47;4.22;;;1.52;;
80278;SDS011;70683;52.492;13.416;2023-12-28T05:28:15;2.92;;;1.45;;
80278;SDS011;70683;52.492;13.416;2023-12-28T05:30:42;2.70;;;1.57;;
80278;SDS011;70683;52.492;13.416;2023-12-28T05:33:09;2.12;;;1.20;;
80278;SDS011;70683;52.492;13.416;2023-12-28T05:35:35;2.25;;;1.22;;
80278;SDS011;70683;52.492;13.416;2023-12-28T05:38:02;4.30;;;1.27;;
80278;SDS011;70683;52.492;13.416;2023-12-28T05:40:30;3.72;;;1.50;;
80278;SDS011;70683;52.492;13.416;2023-12-28T05:42:56;3.77;;;1.50;;
80278;SDS011;70683;52.492;13.416;2023-12-28T05:45:23;5.40;;;1.70;;
80278;SDS011;70683;52.492;13.416;2023-12-28T05:47:50;3.72;;;1.62;;
80278;SDS011;70683;52.492;13.416;2023-12-28T05:50:16;2.87;;;1.47;;
80278;SDS011;70683;52.492;13.416;2023-12-28T05:52:43;4.05;;;1.30;;
80278;SDS011;70683;52.492;13.416;2023-12-28T05:55:10;2.25;;;1.32;;
80278;SDS011;70683;52.492;13.416;2023-12-28T05:57:36;5.12;;;1.42;;
80278;SDS011;70683;52.492;13.416;2023-12-28T06:00:03;3.00;;;1.25;;
80278;SDS011;70683;52.492;13.416;2023-12-28T06:02:31;8.15;;;1.90;;
80278;SDS011;70683;52.492;13.416;2023-12-28T06:04:58;5.70;;;2.62;;
80278;SDS011;70683;52.492;13.416;2023-12-28T06:07:25;8.88;;;4.17;;
80278;SDS011;70683;52.492;13.416;2023-12-28T06:09:51;9.60;;;4.83;;
80278;SDS011;70683;52.492;13.416;2023-12-28T06:12:18;11.88;;;7.10;;
80278;SDS011;70683;52.492;13.416;2023-12-28T06:14:44;8.65;;;5.40;;
80278;SDS011;70683;52.492;13.416;2023-12-28T06:17:11;9.50;;;6.12;;
80278;SDS011;70683;52.492;13.416;2023-12-28T06:19:40;7.53;;;4.67;;
80278;SDS011;70683;52.492;13.416;2023-12-28T06:22:07;5.72;;;3.62;;
80278;SDS011;70683;52.492;13.416;2023-12-28T06:24:37;4.83;;;3.25;;
80278;SDS011;70683;52.492;13.416;2023-12-28T06:29:31;3.40;;;1.75;;
80278;SDS011;70683;52.492;13.416;2023-12-28T06:31:58;4.22;;;1.90;;
80278;SDS011;70683;52.492;13.416;2023-12-28T06:34:24;2.52;;;1.62;;
80278;SDS011;70683;52.492;13.416;2023-12-28T06:36:52;2.95;;;2.12;;
80278;SDS011;70683;52.492;13.416;2023-12-28T06:39:18;3.67;;;2.25;;
80278;SDS011;70683;52.492;13.416;2023-12-28T06:41:47;5.03;;;2.30;;
80278;SDS011;70683;52.492;13.416;2023-12-28T06:44:14;3.15;;;1.82;;
80278;SDS011;70683;52.492;13.416;2023-12-28T06:46:41;4.83;;;2.45;;
80278;SDS011;70683;52.492;13.416;2023-12-28T06:49:08;3.45;;;1.90;;
80278;SDS011;70683;52.492;13.416;2023-12-28T06:51:34;4.12;;;1.80;;
80278;SDS011;70683;52.492;13.416;2023-12-28T06:54:01;4.20;;;1.90;;
80278;SDS011;70683;52.492;13.416;2023-12-28T06:56:27;5.62;;;2.50;;
80278;SDS011;70683;52.492;13.416;2023-12-28T06:58:54;4.67;;;2.77;;
80278;SDS011;70683;52.492;13.416;2023-12-28T07:01:21;3.80;;;1.90;;
80278;SDS011;70683;52.492;13.416;2023-12-28T07:03:47;4.62;;;1.92;;
80278;SDS011;70683;52.492;13.416;2023-12-28T07:06:14;3.37;;;1.77;;
80278;SDS011;70683;52.492;13.416;2023-12-28T07:08:40;3.05;;;1.70;;
80278;SDS011;70683;52.492;13.416;2023-12-28T07:11:09;2.65;;;1.70;;
80278;SDS011;70683;52.492;13.416;2023-12-28T07:13:37;2.90;;;1.60;;
80278;SDS011;70683;52.492;13.416;2023-12-28T07:16:04;5.83;;;1.82;;
80278;SDS011;70683;52.492;13.416;2023-12-28T07:18:33;4.40;;;1.90;;
80278;SDS011;70683;52.492;13.416;2023-12-28T07:21:00;3.75;;;1.37;;
80278;SDS011;70683;52.492;13.416;2023-12-28T07:23:26;4.20;;;1.60;;
80278;SDS011;70683;52.492;13.416;2023-12-28T07:25:53;5.40;;;1.30;;
80278;SDS011;70683;52.492;13.416;2023-12-28T07:28:20;3.00;;;1.32;;
80278;SDS011;70683;52.492;13.416;2023-12-28T07:30:46;2.30;;;1.50;;
80278;SDS011;70683;52.492;13.416;2023-12-28T07:33:13;4.22;;;2.05;;
80278;SDS011;70683;52.492;13.416;2023-12-28T07:35:40;2.15;;;1.50;;
80278;SDS011;70683;52.492;13.416;2023-12-28T07:38:06;5.25;;;1.92;;
80278;SDS011;70683;52.492;13.416;2023-12-28T07:40:33;3.25;;;1.42;;
80278;SDS011;70683;52.492;13.416;2023-12-28T07:42:59;2.60;;;1.30;;
80278;SDS011;70683;52.492;13.416;2023-12-28T07:45:27;5.00;;;1.40;;
80278;SDS011;70683;52.492;13.416;2023-12-28T07:47:53;5.83;;;1.77;;
80278;SDS011;70683;52.492;13.416;2023-12-28T07:50:20;6.80;;;1.80;;
80278;SDS011;70683;52.492;13.416;2023-12-28T07:52:47;7.33;;;2.10;;
80278;SDS011;70683;52.492;13.416;2023-12-28T07:55:14;2.85;;;1.60;;
80278;SDS011;70683;52.492;13.416;2023-12-28T07:57:41;3.33;;;1.77;;
80278;SDS011;70683;52.492;13.416;2023-12-28T08:00:08;3.83;;;2.25;;
80278;SDS011;70683;52.492;13.416;2023-12-28T08:02:35;3.37;;;2.02;;
80278;SDS011;70683;52.492;13.416;2023-12-28T08:05:03;4.62;;;1.90;;
80278;SDS011;70683;52.492;13.416;2023-12-28T08:07:30;4.70;;;2.02;;
80278;SDS011;70683;52.492;13.416;2023-12-28T08:09:56;4.00;;;1.90;;
80278;SDS011;70683;52.492;13.416;2023-12-28T08:12:23;5.55;;;2.30;;
80278;SDS011;70683;52.492;13.416;2023-12-28T08:14:52;4.62;;;2.50;;
80278;SDS011;70683;52.492;13.416;2023-12-28T08:17:19;2.67;;;1.60;;
80278;SDS011;70683;52.492;13.416;2023-12-28T08:19:45;3.92;;;1.80;;
80278;SDS011;70683;52.492;13.416;2023-12-28T08:22:12;5.37;;;2.22;;
80278;SDS011;70683;52.492;13.416;2023-12-28T08:24:38;4.47;;;2.10;;
80278;SDS011;70683;52.492;13.416;2023-12-28T08:27:05;4.00;;;1.98;;
80278;SDS011;70683;52.492;13.416;2023-12-28T08:29:31;4.90;;;2.35;;
80278;SDS011;70683;52.492;13.416;2023-12-28T08:31:59;4.40;;;2.08;;
80278;SDS011;70683;52.492;13.416;2023-12-28T08:34:25;3.62;;;2.20;;
80278;SDS011;70683;52.492;13.416;2023-12-28T08:36:53;4.60;;;2.65;;
80278;SDS011;70683;52.492;13.416;2023-12-28T08:39:20;5.42;;;2.50;;
80278;SDS011;70683;52.492;13.416;2023-12-28T08:41:46;4.47;;;2.62;;
80278;SDS011;70683;52.492;13.416;2023-12-28T08:44:13;5.00;;;2.72;;
80278;SDS011;70683;52.492;13.416;2023-12-28T08:46:39;5.10;;;2.98;;
80278;SDS011;70683;52.492;13.416;2023-12-28T08:49:06;4.53;;;2.50;;
80278;SDS011;70683;52.492;13.416;2023-12-28T08:51:33;3.95;;;2.17;;
80278;SDS011;70683;52.492;13.416;2023-12-28T08:53:59;4.42;;;2.60;;
80278;SDS011;70683;52.492;13.416;2023-12-28T08:56:26;4.87;;;2.70;;
80278;SDS011;70683;52.492;13.416;2023-12-28T08:58:53;5.40;;;2.52;;
80278;SDS011;70683;52.492;13.416;2023-12-28T09:01:20;3.80;;;2.45;;
80278;SDS011;70683;52.492;13.416;2023-12-28T09:03:48;5.22;;;2.65;;
80278;SDS011;70683;52.492;13.416;2023-12-28T09:06:16;4.20;;;2.92;;
80278;SDS011;70683;52.492;13.416;2023-12-28T09:08:44;3.40;;;2.27;;
80278;SDS011;70683;52.492;13.416;2023-12-28T09:11:13;5.20;;;2.37;;
80278;SDS011;70683;52.492;13.416;2023-12-28T09:13:40;6.75;;;3.02;;
80278;SDS011;70683;52.492;13.416;2023-12-28T09:16:07;4.85;;;2.72;;
80278;SDS011;70683;52.492;13.416;2023-12-28T09:18:36;4.58;;;2.27;;
80278;SDS011;70683;52.492;13.416;2023-12-28T09:21:03;6.58;;;2.22;;
80278;SDS011;70683;52.492;13.416;2023-12-28T09:23:32;5.15;;;2.00;;
80278;SDS011;70683;52.492;13.416;2023-12-28T09:25:59;5.00;;;2.98;;
80278;SDS011;70683;52.492;13.416;2023-12-28T09:28:26;6.60;;;2.25;;
80278;SDS011;70683;52.492;13.416;2023-12-28T09:30:53;4.78;;;2.52;;
80278;SDS011;70683;52.492;13.416;2023-12-28T09:33:19;7.10;;;2.75;;
80278;SDS011;70683;52.492;13.416;2023-12-28T09:35:46;8.15;;;2.95;;
80278;SDS011;70683;52.492;13.416;2023-12-28T09:38:14;8.78;;;3.15;;
80278;SDS011;70683;52.492;13.416;2023-12-28T09:40:41;7.92;;;3.85;;
80278;SDS011;70683;52.492;13.416;2023-12-28T09:43:15;6.12;;;2.83;;
80278;SDS011;70683;52.492;13.416;2023-12-28T09:48:17;5.80;;;3.17;;
80278;SDS011;70683;52.492;13.416;2023-12-28T09:50:49;6.20;;;3.33;;
80278;SDS011;70683;52.492;13.416;2023-12-28T09:53:16;7.10;;;3.25;;
80278;SDS011;70683;52.492;13.416;2023-12-28T09:55:44;8.38;;;2.80;;
80278;SDS011;70683;52.492;13.416;2023-12-28T09:58:11;8.18;;;3.62;;
80278;SDS011;70683;52.492;13.416;2023-12-28T10:00:42;11.68;;;3.83;;
80278;SDS011;70683;52.492;13.416;2023-12-28T10:03:11;6.80;;;3.75;;
80278;SDS011;70683;52.492;13.416;2023-12-28T10:05:40;8.45;;;3.25;;
80278;SDS011;70683;52.492;13.416;2023-12-28T10:08:07;10.20;;;3.70;;
80278;SDS011;70683;52.492;13.416;2023-12-28T10:10:34;5.62;;;3.00;;
80278;SDS011;70683;52.492;13.416;2023-12-28T10:13:01;4.72;;;2.75;;
80278;SDS011;70683;52.492;13.416;2023-12-28T10:15:30;5.28;;;2.35;;
80278;SDS011;70683;52.492;13.416;2023-12-28T10:17:57;8.20;;;3.17;;
80278;SDS011;70683;52.492;13.416;2023-12-28T10:20:26;7.67;;;2.77;;
80278;SDS011;70683;52.492;13.416;2023-12-28T10:22:53;6.90;;;2.90;;
80278;SDS011;70683;52.492;13.416;2023-12-28T10:25:20;7.35;;;2.83;;
80278;SDS011;70683;52.492;13.416;2023-12-28T10:27:49;5.45;;;3.02;;
80278;SDS011;70683;52.492;13.416;2023-12-28T10:30:19;6.72;;;2.62;;
80278;SDS011;70683;52.492;13.416;2023-12-28T10:32:46;6.62;;;3.27;;
80278;SDS011;70683;52.492;13.416;2023-12-28T10:35:13;5.03;;;2.80;;
80278;SDS011;70683;52.492;13.416;2023-12-28T10:37:40;5.47;;;2.50;;
80278;SDS011;70683;52.492;13.416;2023-12-28T10:40:10;6.05;;;2.83;;
80278;SDS011;70683;52.492;13.416;2023-12-28T10:42:44;7.58;;;3.40;;
80278;SDS011;70683;52.492;13.416;2023-12-28T10:45:18;5.78;;;3.12;;
80278;SDS011;70683;52.492;13.416;2023-12-28T10:47:59;6.80;;;3.20;;
80278;SDS011;70683;52.492;13.416;2023-12-28T10:50:29;5.40;;;3.15;;
80278;SDS011;70683;52.492;13.416;2023-12-28T10:53:00;5.15;;;2.52;;
80278;SDS011;70683;52.492;13.416;2023-12-28T10:55:32;4.97;;;2.53;;
80278;SDS011;70683;52.492;13.416;2023-12-28T10:58:05;6.42;;;3.08;;
80278;SDS011;70683;52.492;13.416;2023-12-28T11:00:40;6.97;;;2.85;;
80278;SDS011;70683;52.492;13.416;2023-12-28T11:03:09;5.58;;;2.98;;
80278;SDS011;70683;52.492;13.416;2023-12-28T11:05:37;5.00;;;2.50;;
80278;SDS011;70683;52.492;13.416;2023-12-28T11:08:06;4.72;;;2.92;;
80278;SDS011;70683;52.492;13.416;2023-12-28T11:10:35;6.60;;;2.85;;
80278;SDS011;70683;52.492;13.416;2023-12-28T11:13:04;11.12;;;3.87;;
80278;SDS011;70683;52.492;13.416;2023-12-28T11:15:34;6.75;;;3.25;;
80278;SDS011;70683;52.492;13.416;2023-12-28T11:18:02;5.12;;;2.72;;
80278;SDS011;70683;52.492;13.416;2023-12-28T11:20:29;6.10;;;2.80;;
80278;SDS011;70683;52.492;13.416;2023-12-28T11:22:56;6.40;;;2.58;;
80278;SDS011;70683;52.492;13.416;2023-12-28T11:25:24;3.83;;;2.60;;
80278;SDS011;70683;52.492;13.416;2023-12-28T11:27:55;11.00;;;3.47;;
80278;SDS011;70683;52.492;13.416;2023-12-28T11:30:25;6.85;;;3.33;;
80278;SDS011;70683;52.492;13.416;2023-12-28T11:32:56;6.97;;;3.62;;
80278;SDS011;70683;52.492;13.416;2023-12-28T11:35:23;6.72;;;2.40;;
80278;SDS011;70683;52.492;13.416;2023-12-28T11:37:52;10.10;;;2.50;;
80278;SDS011;70683;52.492;13.416;2023-12-28T11:40:20;5.20;;;2.42;;
80278;SDS011;70683;52.492;13.416;2023-12-28T11:42:50;5.70;;;2.98;;
80278;SDS011;70683;52.492;13.416;2023-12-28T11:45:18;11.35;;;3.92;;
80278;SDS011;70683;52.492;13.416;2023-12-28T11:47:46;5.67;;;2.72;;
80278;SDS011;70683;52.492;13.416;2023-12-28T11:50:14;6.85;;;2.92;;
80278;SDS011;70683;52.492;13.416;2023-12-28T11:52:40;7.30;;;3.10;;
80278;SDS011;70683;52.492;13.416;2023-12-28T11:55:07;5.20;;;2.52;;
80278;SDS011;70683;52.492;13.416;2023-12-28T11:57:35;5.22;;;2.00;;
80278;SDS011;70683;52.492;13.416;2023-12-28T12:00:04;5.22;;;2.40;;
80278;SDS011;70683;52.492;13.416;2023-12-28T12:02:32;3.10;;;1.80;;
80278;SDS011;70683;52.492;13.416;2023-12-28T12:04:59;4.10;;;1.80;;
80278;SDS011;70683;52.492;13.416;2023-12-28T12:07:28;3.58;;;2.05;;
80278;SDS011;70683;52.492;13.416;2023-12-28T12:09:55;5.17;;;2.08;;
80278;SDS011;70683;52.492;13.416;2023-12-28T12:12:23;4.30;;;2.10;;
80278;SDS011;70683;52.492;13.416;2023-12-28T12:14:51;3.72;;;2.20;;
80278;SDS011;70683;52.492;13.416;2023-12-28T12:17:17;7.85;;;2.62;;
80278;SDS011;70683;52.492;13.416;2023-12-28T12:19:44;9.58;;;3.00;;
80278;SDS011;70683;52.492;13.416;2023-12-28T12:22:14;9.88;;;2.77;;
80278;SDS011;70683;52.492;13.416;2023-12-28T12:24:43;4.33;;;2.15;;
80278;SDS011;70683;52.492;13.416;2023-12-28T12:27:13;3.98;;;2.00;;
80278;SDS011;70683;52.492;13.416;2023-12-28T12:29:39;9.80;;;2.47;;
80278;SDS011;70683;52.492;13.416;2023-12-28T12:32:06;7.00;;;2.47;;
80278;SDS011;70683;52.492;13.416;2023-12-28T12:34:33;5.47;;;2.50;;
80278;SDS011;70683;52.492;13.416;2023-12-28T12:37:01;5.97;;;2.45;;
80278;SDS011;70683;52.492;13.416;2023-12-28T12:39:28;6.67;;;2.40;;
80278;SDS011;70683;52.492;13.416;2023-12-28T12:41:55;4.67;;;2.40;;
80278;SDS011;70683;52.492;13.416;2023-12-28T12:44:23;4.70;;;2.40;;
80278;SDS011;70683;52.492;13.416;2023-12-28T12:46:56;8.03;;;3.10;;
80278;SDS011;70683;52.492;13.416;2023-12-28T12:49:23;12.82;;;6.65;;
80278;SDS011;70683;52.492;13.416;2023-12-28T12:51:50;6.33;;;3.02;;
80278;SDS011;70683;52.492;13.416;2023-12-28T12:54:17;6.05;;;3.58;;
80278;SDS011;70683;52.492;13.416;2023-12-28T12:56:45;29.90;;;19.45;;
80278;SDS011;70683;52.492;13.416;2023-12-28T12:59:12;11.30;;;6.00;;
80278;SDS011;70683;52.492;13.416;2023-12-28T13:01:41;9.45;;;5.05;;
80278;SDS011;70683;52.492;13.416;2023-12-28T13:04:08;16.00;;;8.98;;
80278;SDS011;70683;52.492;13.416;2023-12-28T13:06:36;8.38;;;5.10;;
80278;SDS011;70683;52.492;13.416;2023-12-28T13:09:02;6.35;;;3.75;;
80278;SDS011;70683;52.492;13.416;2023-12-28T13:11:31;14.10;;;6.40;;
80278;SDS011;70683;52.492;13.416;2023-12-28T13:13:58;7.58;;;4.33;;
80278;SDS011;70683;52.492;13.416;2023-12-28T13:16:25;9.23;;;3.58;;
80278;SDS011;70683;52.492;13.416;2023-12-28T13:18:52;6.83;;;3.20;;
80278;SDS011;70683;52.492;13.416;2023-12-28T13:21:18;7.00;;;2.95;;
80278;SDS011;70683;52.492;13.416;2023-12-28T13:23:45;7.58;;;4.75;;
80278;SDS011;70683;52.492;13.416;2023-12-28T13:26:11;10.35;;;6.35;;
80278;SDS011;70683;52.492;13.416;2023-12-28T13:28:38;7.37;;;3.72;;
80278;SDS011;70683;52.492;13.416;2023-12-28T13:31:05;7.30;;;3.20;;
80278;SDS011;70683;52.492;13.416;2023-12-28T13:33:31;21.10;;;9.18;;
80278;SDS011;70683;52.492;13.416;2023-12-28T13:35:59;13.40;;;6.22;;
80278;SDS011;70683;52.492;13.416;2023-12-28T13:38:26;12.43;;;4.80;;
80278;SDS011;70683;52.492;13.416;2023-12-28T13:40:53;9.45;;;4.90;;
80278;SDS011;70683;52.492;13.416;2023-12-28T13:43:19;10.90;;;5.15;;
80278;SDS011;70683;52.492;13.416;2023-12-28T13:45:46;7.20;;;3.58;;
80278;SDS011;70683;52.492;13.416;2023-12-28T13:48:13;7.60;;;3.37;;
80278;SDS011;70683;52.492;13.416;2023-12-28T13:50:39;6.60;;;3.42;;
80278;SDS011;70683;52.492;13.416;2023-12-28T13:53:06;5.90;;;2.90;;
80278;SDS011;70683;52.492;13.416;2023-12-28T13:55:33;10.85;;;4.30;;
80278;SDS011;70683;52.492;13.416;2023-12-28T13:58:01;11.10;;;5.75;;
80278;SDS011;70683;52.492;13.416;2023-12-28T14:00:28;9.95;;;4.37;;
80278;SDS011;70683;52.492;13.416;2023-12-28T14:02:55;6.72;;;3.58;;
80278;SDS011;70683;52.492;13.416;2023-12-28T14:05:22;9.35;;;3.50;;
80278;SDS011;70683;52.492;13.416;2023-12-28T14:07:50;6.97;;;3.00;;
80278;SDS011;70683;52.492;13.416;2023-12-28T14:10:17;7.37;;;3.37;;
80278;SDS011;70683;52.492;13.416;2023-12-28T14:12:43;7.08;;;3.60;;
80278;SDS011;70683;52.492;13.416;2023-12-28T14:15:10;13.88;;;5.78;;
80278;SDS011;70683;52.492;13.416;2023-12-28T14:17:37;11.73;;;3.80;;
80278;SDS011;70683;52.492;13.416;2023-12-28T14:20:05;9.10;;;3.92;;
80278;SDS011;70683;52.492;13.416;2023-12-28T14:22:34;7.50;;;2.90;;
80278;SDS011;70683;52.492;13.416;2023-12-28T14:25:01;10.50;;;4.10;;
80278;SDS011;70683;52.492;13.416;2023-12-28T14:27:29;7.33;;;3.20;;
80278;SDS011;70683;52.492;13.416;2023-12-28T14:29:56;11.83;;;4.20;;
80278;SDS011;70683;52.492;13.416;2023-12-28T14:32:24;11.80;;;3.87;;
80278;SDS011;70683;52.492;13.416;2023-12-28T14:34:51;6.60;;;2.92;;
80278;SDS011;70683;52.492;13.416;2023-12-28T14:37:18;4.22;;;2.40;;
80278;SDS011;70683;52.492;13.416;2023-12-28T14:39:45;5.83;;;2.17;;